createdAt,value
2023-10-01T00:00:49.532Z,2.47
2023-10-01T00:03:57.111Z,2.13
2023-10-01T00:07:00.548Z,2.40
2023-10-01T00:10:07.992Z,2.40
2023-10-01T00:13:10.991Z,1.98
2023-10-01T00:16:15.175Z,2.13
2023-10-01T00:19:18.930Z,1.98
2023-10-01T00:22:21.833Z,2.10
2023-10-01T00:25:25.383Z,2.15
2023-10-01T00:28:28.379Z,2.60
2023-10-01T00:31:31.836Z,2.42
2023-10-01T00:34:34.664Z,2.10
2023-10-01T00:37:37.487Z,1.92
2023-10-01T00:40:44.405Z,2.45
2023-10-01T00:43:50.241Z,1.77
2023-10-01T00:46:53.037Z,1.92
2023-10-01T00:49:58.686Z,2.03
2023-10-01T00:53:01.703Z,1.88
2023-10-01T00:56:05.338Z,2.85
2023-10-01T00:59:12.892Z,2.13
2023-10-01T01:02:19.347Z,1.58
2023-10-01T01:05:25.119Z,2.03
2023-10-01T01:08:48.626Z,1.70
2023-10-01T01:11:51.885Z,1.92
2023-10-01T01:14:56.329Z,1.80
2023-10-01T01:18:01.585Z,2.10
2023-10-01T01:21:11.495Z,2.10
2023-10-01T01:24:15.251Z,2.15
2023-10-01T01:27:19.052Z,1.75
2023-10-01T01:30:29.662Z,1.65
2023-10-01T01:33:33.878Z,1.83
2023-10-01T01:36:38.880Z,2.38
2023-10-01T01:39:52.880Z,2.40
2023-10-01T01:42:58.439Z,1.65
2023-10-01T01:46:05.325Z,1.58
2023-10-01T01:49:11.479Z,1.40
2023-10-01T01:52:14.253Z,1.90
2023-10-01T01:55:24.892Z,1.45
2023-10-01T01:58:28.002Z,1.77
2023-10-01T02:01:32.281Z,1.83
2023-10-01T02:04:58.930Z,1.65
2023-10-01T02:08:10.078Z,2.58
2023-10-01T02:11:13.568Z,1.80
2023-10-01T02:14:31.583Z,1.42
2023-10-01T02:17:37.156Z,2.17
2023-10-01T02:20:53.529Z,1.65
2023-10-01T02:23:56.321Z,1.90
2023-10-01T02:27:01.943Z,1.67
2023-10-01T02:30:18.201Z,1.67
2023-10-01T02:33:23.288Z,1.95
2023-10-01T02:36:26.433Z,1.70
2023-10-01T02:39:31.113Z,1.55
2023-10-01T02:42:33.812Z,1.73
2023-10-01T02:45:43.035Z,1.52
2023-10-01T02:48:53.481Z,1.73
2023-10-01T02:52:00.666Z,1.55
2023-10-01T02:55:20.085Z,1.80
2023-10-01T02:58:29.659Z,1.23
2023-10-01T03:01:33.267Z,1.75
2023-10-01T03:04:37.418Z,1.63
2023-10-01T03:07:40.546Z,2.05
2023-10-01T03:10:47.942Z,2.00
2023-10-01T03:13:53.061Z,1.85
2023-10-01T03:16:56.124Z,1.60
2023-10-01T03:20:13.086Z,1.65
2023-10-01T03:23:22.268Z,1.90
2023-10-01T03:26:28.414Z,1.85
2023-10-01T03:29:37.171Z,1.60
2023-10-01T03:32:42.235Z,1.98
2023-10-01T03:35:49.540Z,1.70
2023-10-01T03:39:00.476Z,2.33
2023-10-01T03:42:14.927Z,1.80
2023-10-01T03:45:23.386Z,2.35
2023-10-01T03:48:27.100Z,2.03
2023-10-01T03:51:50.889Z,2.03
2023-10-01T03:54:54.210Z,1.80
2023-10-01T03:58:05.518Z,1.67
2023-10-01T04:01:28.218Z,1.90
2023-10-01T04:04:34.364Z,1.88
2023-10-01T04:07:44.334Z,2.05
2023-10-01T04:11:00.476Z,1.65
2023-10-01T04:14:12.484Z,1.85
2023-10-01T04:17:15.207Z,1.83
2023-10-01T04:20:21.253Z,1.95
2023-10-01T04:23:31.365Z,1.95
2023-10-01T04:26:37.224Z,2.00
2023-10-01T04:29:46.621Z,1.73
2023-10-01T04:32:50.754Z,1.60
2023-10-01T04:35:56.835Z,1.80
2023-10-01T04:39:02.020Z,2.15
2023-10-01T04:42:05.028Z,1.60
2023-10-01T04:45:24.619Z,1.80
2023-10-01T04:48:27.484Z,1.55
2023-10-01T04:51:46.391Z,2.08
2023-10-01T04:54:51.268Z,1.77
2023-10-01T04:57:55.922Z,1.75
2023-10-01T05:01:01.054Z,1.73
2023-10-01T05:04:04.233Z,1.52
2023-10-01T05:07:07.205Z,2.00
2023-10-01T05:10:11.327Z,2.20
2023-10-01T05:13:19.006Z,2.05
2023-10-01T05:16:29.618Z,1.70
2023-10-01T05:19:34.026Z,1.70
2023-10-01T05:22:48.286Z,1.60
2023-10-01T05:25:54.209Z,1.77
2023-10-01T05:28:59.932Z,1.90
2023-10-01T05:32:05.178Z,1.65
2023-10-01T05:35:18.861Z,2.22
2023-10-01T05:38:22.467Z,1.50
2023-10-01T05:41:34.254Z,2.08
2023-10-01T05:44:37.103Z,2.00
2023-10-01T05:47:56.587Z,2.40
2023-10-01T05:51:00.572Z,2.08
2023-10-01T05:54:04.296Z,1.63
2023-10-01T05:57:07.965Z,2.17
2023-10-01T06:00:19.585Z,2.05
2023-10-01T06:03:25.309Z,1.60
2023-10-01T06:06:28.185Z,1.40
2023-10-01T06:09:34.720Z,1.80
2023-10-01T06:12:52.174Z,1.95
2023-10-01T06:19:01.869Z,1.60
2023-10-01T06:22:15.691Z,2.15
2023-10-01T06:25:18.779Z,2.15
2023-10-01T06:28:22.132Z,1.90
2023-10-01T06:31:25.470Z,1.77
2023-10-01T06:34:33.921Z,1.85
2023-10-01T06:37:52.312Z,1.90
2023-10-01T06:40:58.930Z,1.70
2023-10-01T06:44:04.076Z,1.90
2023-10-01T06:47:16.663Z,1.75
2023-10-01T06:50:22.335Z,1.92
2023-10-01T06:53:45.191Z,2.22
2023-10-01T06:56:49.264Z,1.80
2023-10-01T06:59:52.442Z,1.60
2023-10-01T07:02:56.936Z,2.03
2023-10-01T07:06:07.598Z,1.85
2023-10-01T07:09:26.740Z,2.25
2023-10-01T07:12:40.573Z,2.00
2023-10-01T07:16:01.792Z,1.85
2023-10-01T07:19:06.188Z,2.55
2023-10-01T07:22:55.103Z,2.03
2023-10-01T07:26:03.391Z,2.13
2023-10-01T07:29:13.221Z,1.98
2023-10-01T07:32:17.340Z,1.92
2023-10-01T07:35:26.389Z,1.75
2023-10-01T07:38:33.254Z,2.58
2023-10-01T07:41:45.066Z,1.80
2023-10-01T07:44:48.637Z,1.77
2023-10-01T07:48:06.542Z,2.00
2023-10-01T07:51:25.032Z,2.17
2023-10-01T07:54:30.670Z,1.67
2023-10-01T07:57:37.525Z,2.08
2023-10-01T08:00:50.999Z,1.83
2023-10-01T08:03:59.631Z,2.53
2023-10-01T08:07:17.431Z,2.00
2023-10-01T08:10:30.716Z,1.75
2023-10-01T08:13:39.148Z,1.67
2023-10-01T08:16:52.806Z,2.08
2023-10-01T08:20:15.813Z,1.42
2023-10-01T08:23:24.829Z,2.22
2023-10-01T08:26:49.838Z,2.00
2023-10-01T08:30:22.229Z,1.88
2023-10-01T08:33:35.873Z,1.80
2023-10-01T08:37:17.430Z,1.60
2023-10-01T08:44:32.471Z,1.90
2023-10-01T08:47:54.889Z,2.00
2023-10-01T08:51:37.651Z,1.60
2023-10-01T08:54:41.964Z,2.10
2023-10-01T08:57:47.601Z,1.70
2023-10-01T09:01:16.334Z,1.60
2023-10-01T09:05:05.157Z,1.80
2023-10-01T09:09:05.163Z,1.63
2023-10-01T09:16:29.589Z,1.75
2023-10-01T09:20:00.329Z,2.08
2023-10-01T09:23:09.466Z,1.50
2023-10-01T09:27:07.076Z,1.50
2023-10-01T09:30:28.650Z,1.98
2023-10-01T09:33:49.804Z,2.10
2023-10-01T09:37:02.831Z,2.35
2023-10-01T09:40:31.113Z,1.85
2023-10-01T09:43:41.524Z,2.40
2023-10-01T09:47:12.133Z,2.17
2023-10-01T09:50:27.659Z,2.08
2023-10-01T09:54:03.541Z,2.47
2023-10-01T09:57:13.483Z,2.08
2023-10-01T10:00:21.270Z,1.80
2023-10-01T10:03:26.211Z,1.65
2023-10-01T10:06:34.199Z,1.95
2023-10-01T10:09:39.304Z,1.95
2023-10-01T10:12:42.403Z,1.50
2023-10-01T10:15:59.324Z,1.88
2023-10-01T10:19:25.491Z,2.40
2023-10-01T10:22:33.679Z,1.80
2023-10-01T10:25:37.374Z,1.70
2023-10-01T10:28:58.469Z,1.95
2023-10-01T10:32:12.714Z,1.83
2023-10-01T10:35:16.571Z,1.75
2023-10-01T10:38:53.705Z,1.35
2023-10-01T10:42:32.263Z,1.15
2023-10-01T10:45:48.801Z,2.42
2023-10-01T10:49:04.476Z,1.55
2023-10-01T10:52:10.185Z,2.00
2023-10-01T10:55:23.772Z,1.85
2023-10-01T10:58:28.092Z,1.85
2023-10-01T11:01:49.973Z,1.45
2023-10-01T11:04:54.146Z,1.60
2023-10-01T11:15:23.639Z,1.23
2023-10-01T11:27:59.633Z,1.25
2023-10-01T11:30:51.801Z,1.55
2023-10-01T11:34:33.790Z,1.10
2023-10-01T11:37:46.675Z,1.25
2023-10-01T11:41:18.474Z,1.40
2023-10-01T11:44:42.843Z,1.00
2023-10-01T11:51:47.018Z,1.50
2023-10-01T11:54:55.935Z,1.10
2023-10-01T11:58:01.729Z,1.58
2023-10-01T12:01:12.316Z,1.50
2023-10-01T12:04:44.586Z,1.40
2023-10-01T12:07:53.699Z,1.27
2023-10-01T12:11:22.327Z,1.20
2023-10-01T12:14:33.959Z,1.02
2023-10-01T12:17:37.094Z,1.10
2023-10-01T12:21:00.292Z,1.42
2023-10-01T12:24:03.470Z,1.23
2023-10-01T12:27:15.211Z,0.80
2023-10-01T12:30:40.047Z,1.23
2023-10-01T12:34:04.813Z,1.20
2023-10-01T12:37:27.993Z,1.40
2023-10-01T12:40:42.557Z,1.00
2023-10-01T12:43:45.726Z,1.00
2023-10-01T12:46:53.497Z,1.30
2023-10-01T12:50:00.880Z,1.10
2023-10-01T12:53:22.399Z,1.00
2023-10-01T12:56:46.002Z,1.05
2023-10-01T13:00:11.216Z,1.10
2023-10-01T13:03:24.751Z,0.95
2023-10-01T13:06:41.282Z,1.10
2023-10-01T13:09:46.921Z,0.90
2023-10-01T13:13:00.842Z,1.40
2023-10-01T13:16:10.011Z,1.05
2023-10-01T13:19:29.340Z,1.08
2023-10-01T13:22:35.432Z,0.73
2023-10-01T13:25:38.973Z,0.88
2023-10-01T13:28:48.005Z,1.10
2023-10-01T13:32:14.318Z,1.17
2023-10-01T13:35:44.011Z,1.27
2023-10-01T13:38:58.648Z,0.93
2023-10-01T13:42:25.359Z,1.27
2023-10-01T13:45:50.242Z,1.40
2023-10-01T13:49:14.622Z,1.33
2023-10-01T13:52:36.041Z,1.17
2023-10-01T13:56:13.912Z,0.93
2023-10-01T13:59:35.345Z,1.10
2023-10-01T14:02:56.727Z,1.05
2023-10-01T14:06:24.834Z,1.10
2023-10-01T14:09:50.548Z,1.45
2023-10-01T14:13:01.997Z,1.20
2023-10-01T14:16:13.395Z,1.50
2023-10-01T14:19:21.622Z,1.15
2023-10-01T14:22:24.434Z,1.23
2023-10-01T14:25:27.929Z,1.77
2023-10-01T14:28:33.097Z,1.33
2023-10-01T14:31:53.560Z,1.25
2023-10-01T14:34:57.080Z,1.20
2023-10-01T14:38:06.034Z,1.58
2023-10-01T14:41:17.485Z,1.17
2023-10-01T14:44:26.423Z,1.60
2023-10-01T14:47:30.162Z,1.30
2023-10-01T14:50:41.187Z,1.40
2023-10-01T14:57:18.375Z,1.27
2023-10-01T15:00:30.553Z,1.38
2023-10-01T15:03:39.315Z,1.85
2023-10-01T15:06:42.162Z,1.60
2023-10-01T15:09:45.232Z,1.45
2023-10-01T15:12:55.875Z,1.73
2023-10-01T15:16:30.852Z,1.55
2023-10-01T15:19:56.068Z,1.30
2023-10-01T15:22:58.998Z,1.98
2023-10-01T15:26:12.689Z,1.35
2023-10-01T15:29:16.093Z,1.02
2023-10-01T15:32:18.958Z,1.95
2023-10-01T15:35:24.334Z,1.40
2023-10-01T15:38:32.328Z,1.38
2023-10-01T15:41:35.307Z,1.50
2023-10-01T15:44:51.236Z,1.20
2023-10-01T15:48:01.023Z,1.77
2023-10-01T15:51:08.774Z,1.15
2023-10-01T15:54:23.823Z,1.27
2023-10-01T15:57:29.712Z,0.77
2023-10-01T16:00:37.506Z,1.30
2023-10-01T16:03:55.122Z,1.15
2023-10-01T16:07:08.388Z,0.85
2023-10-01T16:10:26.878Z,1.48
2023-10-01T16:13:37.484Z,1.00
2023-10-01T16:16:50.904Z,1.23
2023-10-01T16:19:58.712Z,1.30
2023-10-01T16:23:43.743Z,1.10
2023-10-01T16:27:55.819Z,1.17
2023-10-01T16:31:21.874Z,2.17
2023-10-01T16:34:41.824Z,1.42
2023-10-01T16:41:49.352Z,1.38
2023-10-01T16:48:28.816Z,1.02
2023-10-01T16:51:39.167Z,1.48
2023-10-01T16:54:52.631Z,1.40
2023-10-01T16:58:25.035Z,2.08
2023-10-01T17:01:34.660Z,1.65
2023-10-01T17:04:45.588Z,1.20
2023-10-01T17:08:02.348Z,1.42
2023-10-01T17:14:21.245Z,1.05
2023-10-01T17:17:32.276Z,1.20
2023-10-01T17:20:46.282Z,0.98
2023-10-01T17:23:57.479Z,1.65
2023-10-01T17:27:47.086Z,1.42
2023-10-01T17:31:11.332Z,1.10
2023-10-01T17:39:03.068Z,1.08
2023-10-01T17:42:15.951Z,1.25
2023-10-01T17:45:50.835Z,0.90
2023-10-01T17:49:02.772Z,1.00
2023-10-01T17:52:21.934Z,1.30
2023-10-01T17:55:28.579Z,1.25
2023-10-01T17:58:34.705Z,1.33
2023-10-01T18:02:10.466Z,1.48
2023-10-01T18:05:23.922Z,1.60
2023-10-01T18:08:35.935Z,1.35
2023-10-01T18:12:54.689Z,1.10
2023-10-01T18:16:34.429Z,1.60
2023-10-01T18:20:20.339Z,1.35
2023-10-01T18:26:47.512Z,1.05
2023-10-01T18:30:25.941Z,0.95
2023-10-01T18:33:39.670Z,1.20
2023-10-01T18:37:02.985Z,1.52
2023-10-01T18:40:35.712Z,1.20
2023-10-01T18:47:31.008Z,1.10
2023-10-01T18:51:18.350Z,1.90
2023-10-01T18:55:09.743Z,1.60
2023-10-01T19:02:29.079Z,1.48
2023-10-01T19:06:12.386Z,1.50
2023-10-01T19:10:11.816Z,1.33
2023-10-01T19:17:55.389Z,1.05
2023-10-01T19:21:10.514Z,1.00
2023-10-01T19:24:21.681Z,1.85
2023-10-01T19:27:33.746Z,1.58
2023-10-01T19:30:38.406Z,1.70
2023-10-01T19:33:46.139Z,1.30
2023-10-01T19:37:04.588Z,1.55
2023-10-01T19:40:20.145Z,1.60
2023-10-01T19:43:31.041Z,1.40
2023-10-01T19:46:40.042Z,1.20
2023-10-01T19:49:51.165Z,1.10
2023-10-01T19:53:03.994Z,1.00
2023-10-01T19:56:08.865Z,1.10
2023-10-01T19:59:26.919Z,1.10
2023-10-01T20:02:46.558Z,1.60
2023-10-01T20:05:55.729Z,1.60
2023-10-01T20:09:06.055Z,1.98
2023-10-01T20:12:11.294Z,3.65
2023-10-01T20:15:28.352Z,3.75
2023-10-01T20:18:33.925Z,4.55
2023-10-01T20:21:41.670Z,7.20
2023-10-01T20:24:49.966Z,8.50
2023-10-01T20:27:59.264Z,13.02
2023-10-01T20:31:02.736Z,15.45
2023-10-01T20:34:05.544Z,18.63
2023-10-01T20:37:12.711Z,24.23
2023-10-01T20:40:20.046Z,22.05
2023-10-01T20:43:28.093Z,18.75
2023-10-01T20:46:34.487Z,16.02
2023-10-01T20:49:45.033Z,14.68
2023-10-01T20:52:52.738Z,15.18
2023-10-01T20:55:57.930Z,14.40
2023-10-01T20:59:16.844Z,13.48
2023-10-01T21:02:26.713Z,11.23
2023-10-01T21:05:31.459Z,10.25
2023-10-01T21:08:37.124Z,8.75
2023-10-01T21:11:41.192Z,8.23
2023-10-01T21:14:53.843Z,7.57
2023-10-01T21:17:56.811Z,6.55
2023-10-01T21:21:07.996Z,6.70
2023-10-01T21:24:19.782Z,7.15
2023-10-01T21:27:32.385Z,5.60
2023-10-01T21:30:46.470Z,4.82
2023-10-01T21:34:07.091Z,5.00
2023-10-01T21:37:10.703Z,5.63
2023-10-01T21:40:21.865Z,5.38
2023-10-01T21:43:27.413Z,5.32
2023-10-01T21:46:42.212Z,4.40
2023-10-01T21:49:51.566Z,5.22
2023-10-01T21:53:01.472Z,4.78
2023-10-01T21:56:12.125Z,4.35
2023-10-01T21:59:18.039Z,4.07
2023-10-01T22:02:28.274Z,3.05
2023-10-01T22:05:34.790Z,2.67
2023-10-01T22:08:41.062Z,3.17
2023-10-01T22:12:50.300Z,3.33
2023-10-01T22:16:19.823Z,5.50
2023-10-01T22:19:32.924Z,5.63
2023-10-01T22:22:51.193Z,6.32
2023-10-01T22:25:57.799Z,5.63
2023-10-01T22:29:05.711Z,5.15
2023-10-01T22:32:20.516Z,4.22
2023-10-01T22:35:34.492Z,4.80
2023-10-01T22:38:41.633Z,5.65
2023-10-01T22:41:56.074Z,4.47
2023-10-01T22:45:33.400Z,4.20
2023-10-01T22:48:50.998Z,4.65
2023-10-01T22:52:02.523Z,4.57
2023-10-01T22:55:13.505Z,5.65
2023-10-01T22:58:39.855Z,4.93
2023-10-01T23:02:05.495Z,4.05
2023-10-01T23:05:19.010Z,3.47
2023-10-01T23:08:35.191Z,3.20
2023-10-01T23:12:01.419Z,3.15
2023-10-01T23:15:16.855Z,4.05
2023-10-01T23:18:27.805Z,4.38
2023-10-01T23:22:28.220Z,4.20
2023-10-01T23:25:37.459Z,4.45
2023-10-01T23:28:52.793Z,4.50
2023-10-01T23:35:59.839Z,3.17
2023-10-01T23:39:12.781Z,4.85
2023-10-01T23:42:31.034Z,4.13
2023-10-01T23:45:57.939Z,4.22
2023-10-01T23:49:22.865Z,4.15
2023-10-01T23:52:34.935Z,2.78
2023-10-01T23:56:05.307Z,2.65
2023-10-01T23:59:32.728Z,2.67
